sensor_id;sensor_type;location;lat;lon;timestamp;P1;durP1;ratioP1;P2;durP2;ratioP2
26319;SDS011;14024;52.226;5.200;2023-07-30T00:02:22;14.63;;;3.95;;
26319;SDS011;14024;52.226;5.200;2023-07-30T00:04:48;12.90;;;3.58;;
26319;SDS011;14024;52.226;5.200;2023-07-30T00:07:14;17.38;;;4.13;;
26319;SDS011;14024;52.226;5.200;2023-07-30T00:09:40;10.77;;;3.40;;
26319;SDS011;14024;52.226;5.200;2023-07-30T00:12:06;20.75;;;4.35;;
26319;SDS011;14024;52.226;5.200;2023-07-30T00:14:32;24.67;;;6.13;;
26319;SDS011;14024;52.226;5.200;2023-07-30T00:16:59;12.95;;;3.72;;
26319;SDS011;14024;52.226;5.200;2023-07-30T00:19:25;13.25;;;3.92;;
26319;SDS011;14024;52.226;5.200;2023-07-30T00:21:51;27.88;;;4.28;;
26319;SDS011;14024;52.226;5.200;2023-07-30T00:24:17;12.07;;;3.83;;
26319;SDS011;14024;52.226;5.200;2023-07-30T00:26:43;15.55;;;4.20;;
26319;SDS011;14024;52.226;5.200;2023-07-30T00:29:08;16.40;;;4.07;;
26319;SDS011;14024;52.226;5.200;2023-07-30T00:31:34;12.02;;;3.95;;
26319;SDS011;14024;52.226;5.200;2023-07-30T00:34:00;17.50;;;4.18;;
26319;SDS011;14024;52.226;5.200;2023-07-30T00:36:26;23.95;;;3.40;;
26319;SDS011;14024;52.226;5.200;2023-07-30T00:38:52;14.00;;;3.67;;
26319;SDS011;14024;52.226;5.200;2023-07-30T00:41:18;11.65;;;3.25;;
26319;SDS011;14024;52.226;5.200;2023-07-30T00:43:44;15.43;;;3.50;;
26319;SDS011;14024;52.226;5.200;2023-07-30T00:46:11;13.00;;;3.70;;
26319;SDS011;14024;52.226;5.200;2023-07-30T00:48:37;14.95;;;3.65;;
26319;SDS011;14024;52.226;5.200;2023-07-30T00:51:03;19.90;;;4.25;;
26319;SDS011;14024;52.226;5.200;2023-07-30T00:53:30;11.93;;;3.83;;
26319;SDS011;14024;52.226;5.200;2023-07-30T00:55:56;16.02;;;3.65;;
26319;SDS011;14024;52.226;5.200;2023-07-30T00:58:22;13.00;;;3.40;;
26319;SDS011;14024;52.226;5.200;2023-07-30T01:00:48;14.70;;;4.78;;
26319;SDS011;14024;52.226;5.200;2023-07-30T01:03:15;17.45;;;3.60;;
26319;SDS011;14024;52.226;5.200;2023-07-30T01:05:41;11.93;;;3.50;;
26319;SDS011;14024;52.226;5.200;2023-07-30T01:08:07;12.10;;;3.60;;
26319;SDS011;14024;52.226;5.200;2023-07-30T01:10:33;14.85;;;3.75;;
26319;SDS011;14024;52.226;5.200;2023-07-30T01:13:00;19.08;;;3.60;;
26319;SDS011;14024;52.226;5.200;2023-07-30T01:15:28;13.20;;;3.70;;
26319;SDS011;14024;52.226;5.200;2023-07-30T01:17:54;13.73;;;3.20;;
26319;SDS011;14024;52.226;5.200;2023-07-30T01:20:20;18.95;;;4.35;;
26319;SDS011;14024;52.226;5.200;2023-07-30T01:22:46;14.10;;;4.55;;
26319;SDS011;14024;52.226;5.200;2023-07-30T01:25:13;11.32;;;3.03;;
26319;SDS011;14024;52.226;5.200;2023-07-30T01:27:40;17.30;;;4.43;;
26319;SDS011;14024;52.226;5.200;2023-07-30T01:30:25;15.02;;;3.92;;
26319;SDS011;14024;52.226;5.200;2023-07-30T01:32:52;12.15;;;3.70;;
26319;SDS011;14024;52.226;5.200;2023-07-30T01:35:22;17.85;;;4.72;;
26319;SDS011;14024;52.226;5.200;2023-07-30T01:37:51;25.08;;;4.28;;
26319;SDS011;14024;52.226;5.200;2023-07-30T01:40:17;21.08;;;4.80;;
26319;SDS011;14024;52.226;5.200;2023-07-30T01:42:43;13.48;;;3.97;;
26319;SDS011;14024;52.226;5.200;2023-07-30T01:45:09;20.02;;;4.38;;
26319;SDS011;14024;52.226;5.200;2023-07-30T01:47:35;12.65;;;4.07;;
26319;SDS011;14024;52.226;5.200;2023-07-30T01:50:01;19.88;;;3.72;;
26319;SDS011;14024;52.226;5.200;2023-07-30T01:52:28;17.23;;;4.22;;
26319;SDS011;14024;52.226;5.200;2023-07-30T01:54:54;14.55;;;3.72;;
26319;SDS011;14024;52.226;5.200;2023-07-30T01:57:21;19.33;;;4.15;;
26319;SDS011;14024;52.226;5.200;2023-07-30T01:59:47;25.05;;;5.65;;
26319;SDS011;14024;52.226;5.200;2023-07-30T02:02:13;14.20;;;4.25;;
26319;SDS011;14024;52.226;5.200;2023-07-30T02:04:39;18.77;;;4.85;;
26319;SDS011;14024;52.226;5.200;2023-07-30T02:07:05;17.10;;;4.32;;
26319;SDS011;14024;52.226;5.200;2023-07-30T02:09:32;13.57;;;4.00;;
26319;SDS011;14024;52.226;5.200;2023-07-30T02:11:58;26.52;;;4.97;;
26319;SDS011;14024;52.226;5.200;2023-07-30T02:14:24;23.38;;;5.35;;
26319;SDS011;14024;52.226;5.200;2023-07-30T02:16:50;13.07;;;4.63;;
26319;SDS011;14024;52.226;5.200;2023-07-30T02:19:16;20.25;;;4.63;;
26319;SDS011;14024;52.226;5.200;2023-07-30T02:21:42;19.30;;;4.32;;
26319;SDS011;14024;52.226;5.200;2023-07-30T02:24:11;15.82;;;4.28;;
26319;SDS011;14024;52.226;5.200;2023-07-30T02:26:37;23.50;;;4.00;;
26319;SDS011;14024;52.226;5.200;2023-07-30T02:29:03;19.92;;;4.43;;
26319;SDS011;14024;52.226;5.200;2023-07-30T02:31:29;13.30;;;4.43;;
26319;SDS011;14024;52.226;5.200;2023-07-30T02:33:55;28.52;;;4.70;;
26319;SDS011;14024;52.226;5.200;2023-07-30T02:36:21;14.13;;;4.22;;
26319;SDS011;14024;52.226;5.200;2023-07-30T02:38:47;18.75;;;4.90;;
26319;SDS011;14024;52.226;5.200;2023-07-30T02:41:13;23.30;;;4.93;;
26319;SDS011;14024;52.226;5.200;2023-07-30T02:43:39;22.40;;;4.90;;
26319;SDS011;14024;52.226;5.200;2023-07-30T02:46:05;32.03;;;4.55;;
26319;SDS011;14024;52.226;5.200;2023-07-30T02:48:32;17.83;;;4.25;;
26319;SDS011;14024;52.226;5.200;2023-07-30T02:50:58;18.20;;;4.40;;
26319;SDS011;14024;52.226;5.200;2023-07-30T02:53:24;17.55;;;4.93;;
26319;SDS011;14024;52.226;5.200;2023-07-30T02:55:50;24.75;;;5.47;;
26319;SDS011;14024;52.226;5.200;2023-07-30T02:58:16;15.48;;;4.63;;
26319;SDS011;14024;52.226;5.200;2023-07-30T03:00:42;24.38;;;4.50;;
26319;SDS011;14024;52.226;5.200;2023-07-30T03:03:09;17.23;;;4.90;;
26319;SDS011;14024;52.226;5.200;2023-07-30T03:05:35;24.92;;;5.28;;
26319;SDS011;14024;52.226;5.200;2023-07-30T03:08:01;29.10;;;6.38;;
26319;SDS011;14024;52.226;5.200;2023-07-30T03:10:27;17.90;;;4.65;;
26319;SDS011;14024;52.226;5.200;2023-07-30T03:12:53;17.83;;;5.10;;
26319;SDS011;14024;52.226;5.200;2023-07-30T03:15:19;21.05;;;5.00;;
26319;SDS011;14024;52.226;5.200;2023-07-30T03:17:45;25.30;;;5.05;;
26319;SDS011;14024;52.226;5.200;2023-07-30T03:20:11;37.30;;;6.75;;
26319;SDS011;14024;52.226;5.200;2023-07-30T03:22:37;14.73;;;4.78;;
26319;SDS011;14024;52.226;5.200;2023-07-30T03:25:03;27.88;;;5.70;;
26319;SDS011;14024;52.226;5.200;2023-07-30T03:27:29;27.85;;;5.55;;
26319;SDS011;14024;52.226;5.200;2023-07-30T03:29:55;16.52;;;5.00;;
26319;SDS011;14024;52.226;5.200;2023-07-30T03:32:21;27.20;;;5.28;;
26319;SDS011;14024;52.226;5.200;2023-07-30T03:34:47;26.23;;;6.28;;
26319;SDS011;14024;52.226;5.200;2023-07-30T03:37:13;19.67;;;6.03;;
26319;SDS011;14024;52.226;5.200;2023-07-30T03:39:39;31.38;;;6.63;;
26319;SDS011;14024;52.226;5.200;2023-07-30T03:42:05;20.83;;;5.20;;
26319;SDS011;14024;52.226;5.200;2023-07-30T03:44:31;28.75;;;6.50;;
26319;SDS011;14024;52.226;5.200;2023-07-30T03:46:57;29.77;;;6.18;;
26319;SDS011;14024;52.226;5.200;2023-07-30T03:49:23;28.20;;;6.40;;
26319;SDS011;14024;52.226;5.200;2023-07-30T03:51:49;21.60;;;5.60;;
26319;SDS011;14024;52.226;5.200;2023-07-30T03:54:15;30.77;;;6.22;;
26319;SDS011;14024;52.226;5.200;2023-07-30T03:56:41;29.80;;;6.38;;
26319;SDS011;14024;52.226;5.200;2023-07-30T03:59:07;27.30;;;6.43;;
26319;SDS011;14024;52.226;5.200;2023-07-30T04:01:33;23.77;;;5.95;;
26319;SDS011;14024;52.226;5.200;2023-07-30T04:04:00;27.55;;;5.85;;
26319;SDS011;14024;52.226;5.200;2023-07-30T04:06:26;25.65;;;7.25;;
26319;SDS011;14024;52.226;5.200;2023-07-30T04:08:52;25.02;;;6.07;;
26319;SDS011;14024;52.226;5.200;2023-07-30T04:11:18;37.53;;;7.88;;
26319;SDS011;14024;52.226;5.200;2023-07-30T04:13:44;25.85;;;5.68;;
26319;SDS011;14024;52.226;5.200;2023-07-30T04:16:10;29.45;;;6.63;;
26319;SDS011;14024;52.226;5.200;2023-07-30T04:18:36;24.25;;;6.05;;
26319;SDS011;14024;52.226;5.200;2023-07-30T04:21:02;30.58;;;7.35;;
26319;SDS011;14024;52.226;5.200;2023-07-30T04:23:28;34.85;;;6.88;;
26319;SDS011;14024;52.226;5.200;2023-07-30T04:25:54;34.60;;;7.82;;
26319;SDS011;14024;52.226;5.200;2023-07-30T04:28:20;37.83;;;6.43;;
26319;SDS011;14024;52.226;5.200;2023-07-30T04:30:46;35.38;;;7.32;;
26319;SDS011;14024;52.226;5.200;2023-07-30T04:33:12;35.03;;;7.53;;
26319;SDS011;14024;52.226;5.200;2023-07-30T04:35:39;22.83;;;6.57;;
26319;SDS011;14024;52.226;5.200;2023-07-30T04:38:05;23.00;;;6.35;;
26319;SDS011;14024;52.226;5.200;2023-07-30T04:40:31;30.85;;;7.05;;
26319;SDS011;14024;52.226;5.200;2023-07-30T04:42:57;43.10;;;7.82;;
26319;SDS011;14024;52.226;5.200;2023-07-30T04:45:23;35.22;;;7.63;;
26319;SDS011;14024;52.226;5.200;2023-07-30T04:47:49;35.67;;;8.50;;
26319;SDS011;14024;52.226;5.200;2023-07-30T04:50:15;31.65;;;8.40;;
26319;SDS011;14024;52.226;5.200;2023-07-30T04:52:41;29.00;;;7.13;;
26319;SDS011;14024;52.226;5.200;2023-07-30T04:55:07;30.67;;;7.20;;
26319;SDS011;14024;52.226;5.200;2023-07-30T04:57:33;29.55;;;7.00;;
26319;SDS011;14024;52.226;5.200;2023-07-30T04:59:59;26.48;;;8.48;;
26319;SDS011;14024;52.226;5.200;2023-07-30T05:02:25;26.50;;;7.63;;
26319;SDS011;14024;52.226;5.200;2023-07-30T05:04:51;38.00;;;8.00;;
26319;SDS011;14024;52.226;5.200;2023-07-30T05:07:17;27.88;;;7.13;;
26319;SDS011;14024;52.226;5.200;2023-07-30T05:09:43;28.27;;;7.10;;
26319;SDS011;14024;52.226;5.200;2023-07-30T05:12:09;41.45;;;7.68;;
26319;SDS011;14024;52.226;5.200;2023-07-30T05:14:35;38.00;;;7.40;;
26319;SDS011;14024;52.226;5.200;2023-07-30T05:17:01;34.97;;;7.85;;
26319;SDS011;14024;52.226;5.200;2023-07-30T05:19:28;24.65;;;7.00;;
26319;SDS011;14024;52.226;5.200;2023-07-30T05:21:54;44.47;;;7.65;;
26319;SDS011;14024;52.226;5.200;2023-07-30T05:24:20;32.92;;;9.18;;
26319;SDS011;14024;52.226;5.200;2023-07-30T05:26:46;31.55;;;8.23;;
26319;SDS011;14024;52.226;5.200;2023-07-30T05:29:12;43.65;;;9.10;;
26319;SDS011;14024;52.226;5.200;2023-07-30T05:31:38;37.63;;;8.68;;
26319;SDS011;14024;52.226;5.200;2023-07-30T05:34:04;37.47;;;8.63;;
26319;SDS011;14024;52.226;5.200;2023-07-30T05:36:30;41.33;;;8.88;;
26319;SDS011;14024;52.226;5.200;2023-07-30T05:38:56;29.40;;;8.13;;
26319;SDS011;14024;52.226;5.200;2023-07-30T05:41:22;38.45;;;9.35;;
26319;SDS011;14024;52.226;5.200;2023-07-30T05:43:48;46.42;;;10.80;;
26319;SDS011;14024;52.226;5.200;2023-07-30T05:46:14;37.35;;;8.27;;
26319;SDS011;14024;52.226;5.200;2023-07-30T05:48:40;45.00;;;8.63;;
26319;SDS011;14024;52.226;5.200;2023-07-30T05:51:06;33.70;;;8.70;;
26319;SDS011;14024;52.226;5.200;2023-07-30T05:53:32;32.50;;;9.57;;
26319;SDS011;14024;52.226;5.200;2023-07-30T05:55:58;36.22;;;9.40;;
26319;SDS011;14024;52.226;5.200;2023-07-30T05:58:24;42.70;;;9.57;;
26319;SDS011;14024;52.226;5.200;2023-07-30T06:00:50;30.77;;;10.32;;
26319;SDS011;14024;52.226;5.200;2023-07-30T06:03:16;39.88;;;10.07;;
26319;SDS011;14024;52.226;5.200;2023-07-30T06:05:42;41.67;;;9.45;;
26319;SDS011;14024;52.226;5.200;2023-07-30T06:08:08;37.50;;;11.20;;
26319;SDS011;14024;52.226;5.200;2023-07-30T06:10:38;46.17;;;10.57;;
26319;SDS011;14024;52.226;5.200;2023-07-30T06:13:05;34.67;;;10.95;;
26319;SDS011;14024;52.226;5.200;2023-07-30T06:15:32;42.38;;;9.65;;
26319;SDS011;14024;52.226;5.200;2023-07-30T06:17:58;40.33;;;9.45;;
26319;SDS011;14024;52.226;5.200;2023-07-30T06:20:24;32.13;;;9.65;;
26319;SDS011;14024;52.226;5.200;2023-07-30T06:22:50;37.47;;;9.80;;
26319;SDS011;14024;52.226;5.200;2023-07-30T06:25:16;27.05;;;9.73;;
26319;SDS011;14024;52.226;5.200;2023-07-30T06:27:42;28.00;;;9.25;;
26319;SDS011;14024;52.226;5.200;2023-07-30T06:30:08;41.30;;;9.93;;
26319;SDS011;14024;52.226;5.200;2023-07-30T06:32:35;35.00;;;9.48;;
26319;SDS011;14024;52.226;5.200;2023-07-30T06:35:02;36.72;;;9.88;;
26319;SDS011;14024;52.226;5.200;2023-07-30T06:37:28;38.88;;;9.90;;
26319;SDS011;14024;52.226;5.200;2023-07-30T06:39:54;34.85;;;9.32;;
26319;SDS011;14024;52.226;5.200;2023-07-30T06:42:21;35.83;;;8.52;;
26319;SDS011;14024;52.226;5.200;2023-07-30T06:44:47;31.02;;;9.73;;
26319;SDS011;14024;52.226;5.200;2023-07-30T06:47:13;43.92;;;10.90;;
26319;SDS011;14024;52.226;5.200;2023-07-30T06:49:39;27.90;;;8.38;;
26319;SDS011;14024;52.226;5.200;2023-07-30T06:52:05;32.85;;;9.02;;
26319;SDS011;14024;52.226;5.200;2023-07-30T06:54:31;30.90;;;8.00;;
26319;SDS011;14024;52.226;5.200;2023-07-30T06:56:57;32.25;;;7.95;;
26319;SDS011;14024;52.226;5.200;2023-07-30T06:59:23;38.05;;;8.35;;
26319;SDS011;14024;52.226;5.200;2023-07-30T07:01:49;29.42;;;7.43;;
26319;SDS011;14024;52.226;5.200;2023-07-30T07:04:15;35.90;;;8.23;;
26319;SDS011;14024;52.226;5.200;2023-07-30T07:06:41;30.95;;;7.32;;
26319;SDS011;14024;52.226;5.200;2023-07-30T07:09:07;22.33;;;6.65;;
26319;SDS011;14024;52.226;5.200;2023-07-30T07:11:33;38.03;;;7.68;;
26319;SDS011;14024;52.226;5.200;2023-07-30T07:13:59;32.08;;;7.28;;
26319;SDS011;14024;52.226;5.200;2023-07-30T07:16:25;25.00;;;6.22;;
26319;SDS011;14024;52.226;5.200;2023-07-30T07:18:51;27.98;;;7.03;;
26319;SDS011;14024;52.226;5.200;2023-07-30T07:21:17;33.00;;;6.82;;
26319;SDS011;14024;52.226;5.200;2023-07-30T07:23:45;23.27;;;5.70;;
26319;SDS011;14024;52.226;5.200;2023-07-30T07:26:11;26.15;;;5.88;;
26319;SDS011;14024;52.226;5.200;2023-07-30T07:28:37;30.48;;;6.35;;
26319;SDS011;14024;52.226;5.200;2023-07-30T07:31:03;23.65;;;6.63;;
26319;SDS011;14024;52.226;5.200;2023-07-30T07:33:29;22.90;;;5.88;;
26319;SDS011;14024;52.226;5.200;2023-07-30T07:36:05;25.85;;;5.60;;
26319;SDS011;14024;52.226;5.200;2023-07-30T07:38:31;24.73;;;6.32;;
26319;SDS011;14024;52.226;5.200;2023-07-30T07:40:58;33.78;;;6.13;;
26319;SDS011;14024;52.226;5.200;2023-07-30T07:43:24;22.88;;;6.68;;
26319;SDS011;14024;52.226;5.200;2023-07-30T07:45:50;19.52;;;4.82;;
26319;SDS011;14024;52.226;5.200;2023-07-30T07:48:16;27.15;;;5.80;;
26319;SDS011;14024;52.226;5.200;2023-07-30T07:50:42;21.58;;;4.88;;
26319;SDS011;14024;52.226;5.200;2023-07-30T07:53:08;23.77;;;5.97;;
26319;SDS011;14024;52.226;5.200;2023-07-30T07:55:34;27.20;;;6.20;;
26319;SDS011;14024;52.226;5.200;2023-07-30T07:58:00;30.05;;;5.75;;
26319;SDS011;14024;52.226;5.200;2023-07-30T08:00:26;27.90;;;6.38;;
26319;SDS011;14024;52.226;5.200;2023-07-30T08:02:52;23.73;;;6.15;;
26319;SDS011;14024;52.226;5.200;2023-07-30T08:05:18;20.65;;;6.10;;
26319;SDS011;14024;52.226;5.200;2023-07-30T08:07:47;25.60;;;5.85;;
26319;SDS011;14024;52.226;5.200;2023-07-30T08:10:13;22.98;;;6.47;;
26319;SDS011;14024;52.226;5.200;2023-07-30T08:12:39;29.23;;;5.80;;
26319;SDS011;14024;52.226;5.200;2023-07-30T08:15:05;24.15;;;6.55;;
26319;SDS011;14024;52.226;5.200;2023-07-30T08:17:32;25.02;;;6.32;;
26319;SDS011;14024;52.226;5.200;2023-07-30T08:19:59;23.63;;;5.78;;
26319;SDS011;14024;52.226;5.200;2023-07-30T08:22:25;23.23;;;5.68;;
26319;SDS011;14024;52.226;5.200;2023-07-30T08:24:51;26.13;;;7.45;;
26319;SDS011;14024;52.226;5.200;2023-07-30T08:27:17;27.90;;;6.57;;
26319;SDS011;14024;52.226;5.200;2023-07-30T08:29:43;25.17;;;5.35;;
26319;SDS011;14024;52.226;5.200;2023-07-30T08:32:10;24.58;;;5.50;;
26319;SDS011;14024;52.226;5.200;2023-07-30T08:34:36;25.10;;;4.75;;
26319;SDS011;14024;52.226;5.200;2023-07-30T08:37:02;15.13;;;4.75;;
26319;SDS011;14024;52.226;5.200;2023-07-30T08:39:28;16.52;;;4.95;;
26319;SDS011;14024;52.226;5.200;2023-07-30T08:41:54;14.27;;;4.78;;
26319;SDS011;14024;52.226;5.200;2023-07-30T08:44:20;23.25;;;5.07;;
26319;SDS011;14024;52.226;5.200;2023-07-30T08:46:46;22.60;;;4.22;;
26319;SDS011;14024;52.226;5.200;2023-07-30T08:49:12;19.35;;;4.65;;
26319;SDS011;14024;52.226;5.200;2023-07-30T08:51:38;19.80;;;6.03;;
26319;SDS011;14024;52.226;5.200;2023-07-30T08:54:06;17.83;;;5.57;;
26319;SDS011;14024;52.226;5.200;2023-07-30T08:56:33;9.45;;;3.85;;
26319;SDS011;14024;52.226;5.200;2023-07-30T08:58:59;22.60;;;5.32;;
26319;SDS011;14024;52.226;5.200;2023-07-30T09:01:29;24.23;;;5.20;;
26319;SDS011;14024;52.226;5.200;2023-07-30T09:03:59;19.40;;;4.38;;
26319;SDS011;14024;52.226;5.200;2023-07-30T09:06:28;21.10;;;4.10;;
26319;SDS011;14024;52.226;5.200;2023-07-30T09:08:54;18.08;;;4.43;;
26319;SDS011;14024;52.226;5.200;2023-07-30T09:11:20;17.10;;;3.35;;
26319;SDS011;14024;52.226;5.200;2023-07-30T09:13:46;17.05;;;4.05;;
26319;SDS011;14024;52.226;5.200;2023-07-30T09:16:12;9.02;;;2.70;;
26319;SDS011;14024;52.226;5.200;2023-07-30T09:18:42;14.10;;;2.70;;
26319;SDS011;14024;52.226;5.200;2023-07-30T09:21:09;14.80;;;2.63;;
26319;SDS011;14024;52.226;5.200;2023-07-30T09:23:39;9.90;;;2.65;;
26319;SDS011;14024;52.226;5.200;2023-07-30T09:26:07;12.45;;;2.90;;
26319;SDS011;14024;52.226;5.200;2023-07-30T09:28:33;13.00;;;2.83;;
26319;SDS011;14024;52.226;5.200;2023-07-30T09:31:03;7.32;;;2.35;;
26319;SDS011;14024;52.226;5.200;2023-07-30T09:33:30;12.07;;;2.55;;
26319;SDS011;14024;52.226;5.200;2023-07-30T09:35:57;10.45;;;2.53;;
26319;SDS011;14024;52.226;5.200;2023-07-30T09:38:23;12.23;;;3.15;;
26319;SDS011;14024;52.226;5.200;2023-07-30T09:40:50;12.00;;;2.50;;
26319;SDS011;14024;52.226;5.200;2023-07-30T09:43:17;9.75;;;2.42;;
26319;SDS011;14024;52.226;5.200;2023-07-30T09:45:44;10.48;;;2.65;;
26319;SDS011;14024;52.226;5.200;2023-07-30T09:48:13;12.88;;;3.03;;
26319;SDS011;14024;52.226;5.200;2023-07-30T09:50:40;10.55;;;3.28;;
26319;SDS011;14024;52.226;5.200;2023-07-30T09:53:07;9.60;;;3.17;;
26319;SDS011;14024;52.226;5.200;2023-07-30T09:55:34;17.77;;;2.40;;
26319;SDS011;14024;52.226;5.200;2023-07-30T09:58:00;9.80;;;2.53;;
26319;SDS011;14024;52.226;5.200;2023-07-30T10:00:26;13.43;;;2.80;;
26319;SDS011;14024;52.226;5.200;2023-07-30T10:02:53;19.98;;;3.88;;
26319;SDS011;14024;52.226;5.200;2023-07-30T10:05:21;20.73;;;3.45;;
26319;SDS011;14024;52.226;5.200;2023-07-30T10:10:15;8.05;;;2.67;;
26319;SDS011;14024;52.226;5.200;2023-07-30T10:12:41;14.32;;;2.40;;
26319;SDS011;14024;52.226;5.200;2023-07-30T10:15:07;17.02;;;2.72;;
26319;SDS011;14024;52.226;5.200;2023-07-30T10:17:33;15.20;;;2.50;;
26319;SDS011;14024;52.226;5.200;2023-07-30T10:22:56;10.75;;;2.58;;
26319;SDS011;14024;52.226;5.200;2023-07-30T10:25:30;14.23;;;2.20;;
26319;SDS011;14024;52.226;5.200;2023-07-30T10:27:56;10.60;;;2.30;;
26319;SDS011;14024;52.226;5.200;2023-07-30T10:30:27;8.40;;;2.30;;
26319;SDS011;14024;52.226;5.200;2023-07-30T10:35:41;10.27;;;3.22;;
26319;SDS011;14024;52.226;5.200;2023-07-30T10:41:03;14.55;;;3.30;;
26319;SDS011;14024;52.226;5.200;2023-07-30T10:43:30;11.38;;;2.38;;
26319;SDS011;14024;52.226;5.200;2023-07-30T10:45:56;10.50;;;2.17;;
26319;SDS011;14024;52.226;5.200;2023-07-30T10:48:29;11.80;;;2.63;;
26319;SDS011;14024;52.226;5.200;2023-07-30T10:53:22;16.83;;;2.95;;
26319;SDS011;14024;52.226;5.200;2023-07-30T10:55:48;8.90;;;2.25;;
26319;SDS011;14024;52.226;5.200;2023-07-30T10:58:14;11.70;;;3.00;;
26319;SDS011;14024;52.226;5.200;2023-07-30T11:00:41;13.05;;;2.53;;
26319;SDS011;14024;52.226;5.200;2023-07-30T11:03:07;11.05;;;2.33;;
26319;SDS011;14024;52.226;5.200;2023-07-30T11:05:33;10.93;;;2.65;;
26319;SDS011;14024;52.226;5.200;2023-07-30T11:07:59;10.60;;;2.90;;
26319;SDS011;14024;52.226;5.200;2023-07-30T11:10:25;8.10;;;2.13;;
26319;SDS011;14024;52.226;5.200;2023-07-30T11:12:51;8.27;;;2.17;;
26319;SDS011;14024;52.226;5.200;2023-07-30T11:15:17;11.48;;;2.83;;
26319;SDS011;14024;52.226;5.200;2023-07-30T11:17:43;18.02;;;3.22;;
26319;SDS011;14024;52.226;5.200;2023-07-30T11:20:26;15.65;;;3.20;;
26319;SDS011;14024;52.226;5.200;2023-07-30T11:22:52;13.63;;;2.90;;
26319;SDS011;14024;52.226;5.200;2023-07-30T11:25:19;8.05;;;2.17;;
26319;SDS011;14024;52.226;5.200;2023-07-30T11:27:46;6.65;;;2.10;;
26319;SDS011;14024;52.226;5.200;2023-07-30T11:30:12;12.05;;;2.65;;
26319;SDS011;14024;52.226;5.200;2023-07-30T11:32:38;12.88;;;2.83;;
26319;SDS011;14024;52.226;5.200;2023-07-30T11:35:05;15.65;;;2.72;;
26319;SDS011;14024;52.226;5.200;2023-07-30T11:37:31;15.82;;;2.45;;
26319;SDS011;14024;52.226;5.200;2023-07-30T11:39:59;7.90;;;2.20;;
26319;SDS011;14024;52.226;5.200;2023-07-30T11:42:25;13.38;;;2.53;;
26319;SDS011;14024;52.226;5.200;2023-07-30T11:44:54;12.35;;;2.45;;
26319;SDS011;14024;52.226;5.200;2023-07-30T11:47:21;9.35;;;2.20;;
26319;SDS011;14024;52.226;5.200;2023-07-30T11:50:20;11.07;;;2.15;;
26319;SDS011;14024;52.226;5.200;2023-07-30T11:52:55;9.18;;;2.35;;
26319;SDS011;14024;52.226;5.200;2023-07-30T11:55:22;7.45;;;1.85;;
26319;SDS011;14024;52.226;5.200;2023-07-30T11:57:50;6.78;;;1.83;;
26319;SDS011;14024;52.226;5.200;2023-07-30T12:00:16;8.95;;;1.95;;
26319;SDS011;14024;52.226;5.200;2023-07-30T12:02:46;17.75;;;1.83;;
26319;SDS011;14024;52.226;5.200;2023-07-30T12:05:12;9.73;;;1.60;;
26319;SDS011;14024;52.226;5.200;2023-07-30T12:07:41;8.93;;;2.08;;
26319;SDS011;14024;52.226;5.200;2023-07-30T12:10:11;11.32;;;1.85;;
26319;SDS011;14024;52.226;5.200;2023-07-30T12:12:44;5.43;;;1.50;;
26319;SDS011;14024;52.226;5.200;2023-07-30T12:15:11;7.47;;;2.10;;
26319;SDS011;14024;52.226;5.200;2023-07-30T12:17:37;8.15;;;1.73;;
26319;SDS011;14024;52.226;5.200;2023-07-30T12:20:03;4.45;;;1.65;;
26319;SDS011;14024;52.226;5.200;2023-07-30T12:22:31;8.80;;;2.03;;
26319;SDS011;14024;52.226;5.200;2023-07-30T12:24:59;8.10;;;2.13;;
26319;SDS011;14024;52.226;5.200;2023-07-30T12:27:25;7.28;;;1.70;;
26319;SDS011;14024;52.226;5.200;2023-07-30T12:29:51;5.68;;;1.83;;
26319;SDS011;14024;52.226;5.200;2023-07-30T12:32:17;8.82;;;2.00;;
26319;SDS011;14024;52.226;5.200;2023-07-30T12:34:43;8.55;;;1.85;;
26319;SDS011;14024;52.226;5.200;2023-07-30T12:37:09;7.25;;;1.90;;
26319;SDS011;14024;52.226;5.200;2023-07-30T12:39:36;8.43;;;2.05;;
26319;SDS011;14024;52.226;5.200;2023-07-30T12:42:03;8.68;;;2.10;;
26319;SDS011;14024;52.226;5.200;2023-07-30T12:44:29;8.13;;;2.28;;
26319;SDS011;14024;52.226;5.200;2023-07-30T12:46:55;8.18;;;2.05;;
26319;SDS011;14024;52.226;5.200;2023-07-30T12:49:21;7.95;;;2.20;;
26319;SDS011;14024;52.226;5.200;2023-07-30T12:51:47;9.10;;;2.28;;
26319;SDS011;14024;52.226;5.200;2023-07-30T12:54:13;6.28;;;2.08;;
26319;SDS011;14024;52.226;5.200;2023-07-30T12:56:39;6.70;;;2.30;;
26319;SDS011;14024;52.226;5.200;2023-07-30T12:59:05;6.68;;;1.80;;
26319;SDS011;14024;52.226;5.200;2023-07-30T13:01:31;6.07;;;1.63;;
26319;SDS011;14024;52.226;5.200;2023-07-30T13:03:57;7.82;;;1.40;;
26319;SDS011;14024;52.226;5.200;2023-07-30T13:06:23;3.58;;;1.30;;
26319;SDS011;14024;52.226;5.200;2023-07-30T13:08:49;5.20;;;1.30;;
26319;SDS011;14024;52.226;5.200;2023-07-30T13:11:15;6.68;;;1.70;;
26319;SDS011;14024;52.226;5.200;2023-07-30T13:13:41;10.50;;;1.65;;
26319;SDS011;14024;52.226;5.200;2023-07-30T13:16:07;5.97;;;1.77;;
26319;SDS011;14024;52.226;5.200;2023-07-30T13:18:33;7.05;;;1.73;;
26319;SDS011;14024;52.226;5.200;2023-07-30T13:20:59;10.38;;;2.50;;
26319;SDS011;14024;52.226;5.200;2023-07-30T13:23:25;6.88;;;2.25;;
26319;SDS011;14024;52.226;5.200;2023-07-30T13:25:51;8.45;;;1.88;;
26319;SDS011;14024;52.226;5.200;2023-07-30T13:28:17;7.10;;;1.90;;
26319;SDS011;14024;52.226;5.200;2023-07-30T13:30:43;15.25;;;2.55;;
26319;SDS011;14024;52.226;5.200;2023-07-30T13:33:09;8.73;;;2.03;;
26319;SDS011;14024;52.226;5.200;2023-07-30T13:35:35;13.20;;;1.85;;
26319;SDS011;14024;52.226;5.200;2023-07-30T13:38:01;11.32;;;2.35;;
26319;SDS011;14024;52.226;5.200;2023-07-30T13:40:27;13.05;;;2.08;;
26319;SDS011;14024;52.226;5.200;2023-07-30T13:42:53;9.10;;;1.70;;
26319;SDS011;14024;52.226;5.200;2023-07-30T13:45:19;13.35;;;2.92;;
26319;SDS011;14024;52.226;5.200;2023-07-30T13:47:45;9.63;;;2.03;;
26319;SDS011;14024;52.226;5.200;2023-07-30T13:50:11;6.45;;;2.03;;
26319;SDS011;14024;52.226;5.200;2023-07-30T13:52:37;4.28;;;1.85;;
26319;SDS011;14024;52.226;5.200;2023-07-30T13:55:03;6.93;;;1.73;;
26319;SDS011;14024;52.226;5.200;2023-07-30T13:57:29;7.25;;;2.05;;
26319;SDS011;14024;52.226;5.200;2023-07-30T13:59:55;7.30;;;2.20;;
26319;SDS011;14024;52.226;5.200;2023-07-30T14:02:21;7.65;;;2.03;;
26319;SDS011;14024;52.226;5.200;2023-07-30T14:04:47;7.85;;;1.70;;
26319;SDS011;14024;52.226;5.200;2023-07-30T14:07:13;8.30;;;2.47;;
26319;SDS011;14024;52.226;5.200;2023-07-30T14:09:39;12.77;;;3.53;;
26319;SDS011;14024;52.226;5.200;2023-07-30T14:12:05;5.05;;;1.80;;
26319;SDS011;14024;52.226;5.200;2023-07-30T14:14:33;10.75;;;2.20;;
26319;SDS011;14024;52.226;5.200;2023-07-30T14:16:59;8.82;;;2.30;;
26319;SDS011;14024;52.226;5.200;2023-07-30T14:19:31;7.32;;;2.05;;
26319;SDS011;14024;52.226;5.200;2023-07-30T14:21:57;13.95;;;2.22;;
26319;SDS011;14024;52.226;5.200;2023-07-30T14:24:23;10.15;;;2.92;;
26319;SDS011;14024;52.226;5.200;2023-07-30T14:26:49;11.23;;;2.47;;
26319;SDS011;14024;52.226;5.200;2023-07-30T14:29:15;8.35;;;2.40;;
26319;SDS011;14024;52.226;5.200;2023-07-30T14:31:42;14.63;;;2.53;;
26319;SDS011;14024;52.226;5.200;2023-07-30T14:34:08;14.30;;;2.88;;
26319;SDS011;14024;52.226;5.200;2023-07-30T14:36:34;19.17;;;3.10;;
26319;SDS011;14024;52.226;5.200;2023-07-30T14:39:00;8.20;;;2.00;;
26319;SDS011;14024;52.226;5.200;2023-07-30T14:41:26;14.00;;;3.05;;
26319;SDS011;14024;52.226;5.200;2023-07-30T14:43:52;11.57;;;2.53;;
26319;SDS011;14024;52.226;5.200;2023-07-30T14:46:17;9.25;;;2.40;;